createdAt,value
2023-02-16T00:00:14.725Z,21.98
2023-02-16T00:02:38.052Z,19.20
2023-02-16T00:05:01.319Z,20.48
2023-02-16T00:07:26.055Z,20.02
2023-02-16T00:09:49.667Z,19.83
2023-02-16T00:12:37.976Z,22.20
2023-02-16T00:15:01.445Z,20.25
2023-02-16T00:17:24.771Z,20.90
2023-02-16T00:19:48.130Z,21.83
2023-02-16T00:22:12.171Z,20.77
2023-02-16T00:24:37.704Z,21.85
2023-02-16T00:27:02.144Z,21.80
2023-02-16T00:29:29.188Z,21.23
2023-02-16T00:31:53.440Z,19.33
2023-02-16T00:34:30.893Z,21.42
2023-02-16T00:36:54.329Z,20.95
2023-02-16T00:39:19.083Z,21.95
2023-02-16T00:41:53.965Z,20.85
2023-02-16T00:44:20.881Z,20.83
2023-02-16T00:46:45.016Z,20.27
2023-02-16T00:49:14.705Z,22.05
2023-02-16T00:51:38.068Z,21.98
2023-02-16T00:54:01.360Z,20.35
2023-02-16T00:56:24.786Z,21.75
2023-02-16T00:58:52.039Z,20.17
2023-02-16T01:01:18.257Z,22.42
2023-02-16T01:03:45.328Z,20.80
2023-02-16T01:06:26.532Z,19.77
2023-02-16T01:09:07.846Z,20.83
2023-02-16T01:11:31.400Z,20.40
2023-02-16T01:13:58.540Z,20.67
2023-02-16T01:16:25.015Z,23.42
2023-02-16T01:18:49.005Z,21.65
2023-02-16T01:21:12.327Z,21.52
2023-02-16T01:23:35.725Z,21.65
2023-02-16T01:25:59.044Z,23.63
2023-02-16T01:28:26.085Z,20.95
2023-02-16T01:30:51.692Z,23.77
2023-02-16T01:33:15.235Z,22.40
2023-02-16T01:35:38.648Z,21.08
2023-02-16T01:38:02.382Z,22.45
2023-02-16T01:40:43.585Z,24.00
2023-02-16T01:43:18.718Z,22.40
2023-02-16T01:45:44.520Z,24.67
2023-02-16T01:48:20.092Z,23.92
2023-02-16T01:50:54.942Z,23.27
2023-02-16T01:53:24.279Z,22.75
2023-02-16T01:55:50.998Z,26.45
2023-02-16T01:58:23.962Z,24.30
2023-02-16T02:01:34.105Z,22.92
2023-02-16T02:04:16.341Z,24.33
2023-02-16T02:06:39.814Z,23.95
2023-02-16T02:09:08.367Z,26.67
2023-02-16T02:11:36.897Z,24.50
2023-02-16T02:14:07.932Z,23.80
2023-02-16T02:16:31.748Z,24.42
2023-02-16T02:18:55.675Z,28.17
2023-02-16T02:22:13.039Z,25.50
2023-02-16T02:25:05.528Z,28.45
2023-02-16T02:27:34.182Z,25.10
2023-02-16T02:30:21.714Z,27.75
2023-02-16T02:33:18.742Z,28.40
2023-02-16T02:35:52.066Z,27.05
2023-02-16T02:38:26.075Z,30.05
2023-02-16T02:41:00.909Z,27.75
2023-02-16T02:43:33.066Z,28.57
2023-02-16T02:46:00.959Z,28.05
2023-02-16T02:48:24.359Z,29.27
2023-02-16T02:51:12.556Z,27.50
2023-02-16T02:53:41.178Z,26.23
2023-02-16T02:56:35.689Z,26.85
2023-02-16T02:59:23.139Z,25.67
2023-02-16T03:01:51.758Z,24.40
2023-02-16T03:04:19.914Z,24.15
2023-02-16T03:06:48.994Z,23.35
2023-02-16T03:09:15.702Z,24.25
2023-02-16T03:11:57.326Z,25.77
2023-02-16T03:14:26.755Z,26.30
2023-02-16T03:17:11.496Z,27.37
2023-02-16T03:19:52.189Z,27.10
2023-02-16T03:22:32.901Z,23.50
2023-02-16T03:25:13.981Z,25.25
2023-02-16T03:27:58.768Z,25.05
2023-02-16T03:30:24.963Z,25.55
2023-02-16T03:32:49.416Z,26.67
2023-02-16T03:35:13.302Z,27.98
2023-02-16T03:37:36.875Z,25.90
2023-02-16T03:40:17.687Z,25.45
2023-02-16T03:42:40.997Z,25.53
2023-02-16T03:45:04.583Z,25.92
2023-02-16T03:47:29.267Z,24.20
2023-02-16T03:49:52.521Z,25.20
2023-02-16T03:52:15.868Z,25.63
2023-02-16T03:54:39.132Z,25.65
2023-02-16T03:57:02.680Z,25.93
2023-02-16T03:59:26.148Z,25.48
2023-02-16T04:01:49.590Z,25.75
2023-02-16T04:04:15.296Z,26.45
2023-02-16T04:06:38.663Z,26.87
2023-02-16T04:09:02.720Z,27.17
2023-02-16T04:11:43.561Z,25.13
2023-02-16T04:14:06.971Z,27.60
2023-02-16T04:16:30.219Z,26.45
2023-02-16T04:18:53.823Z,24.77
2023-02-16T04:21:18.430Z,27.92
2023-02-16T04:23:42.192Z,26.08
2023-02-16T04:26:05.760Z,24.85
2023-02-16T04:28:29.003Z,27.13
2023-02-16T04:30:52.894Z,26.50
2023-02-16T04:33:16.351Z,26.90
2023-02-16T04:35:39.592Z,27.77
2023-02-16T04:38:04.190Z,24.57
2023-02-16T04:40:27.488Z,25.98
2023-02-16T04:42:50.754Z,26.05
2023-02-16T04:45:14.835Z,26.83
2023-02-16T04:47:38.414Z,25.38
2023-02-16T04:50:01.926Z,24.77
2023-02-16T04:52:25.402Z,26.70
2023-02-16T04:54:50.210Z,26.57
2023-02-16T04:57:14.138Z,25.90
2023-02-16T04:59:37.747Z,27.00
2023-02-16T05:02:01.220Z,27.98
2023-02-16T05:04:25.210Z,26.13
2023-02-16T05:06:48.732Z,25.27
2023-02-16T05:09:12.688Z,27.47
2023-02-16T05:11:54.972Z,27.17
2023-02-16T05:14:38.941Z,27.38
2023-02-16T05:17:02.368Z,25.83
2023-02-16T05:19:25.714Z,27.80
2023-02-16T05:21:49.054Z,27.45
2023-02-16T05:24:13.439Z,27.30
2023-02-16T05:26:40.236Z,27.27
2023-02-16T05:29:04.484Z,27.58
2023-02-16T05:31:29.311Z,26.50
2023-02-16T05:33:53.123Z,27.95
2023-02-16T05:36:16.573Z,27.77
2023-02-16T05:38:39.905Z,28.10
2023-02-16T05:41:04.128Z,28.73
2023-02-16T05:43:29.314Z,28.52
2023-02-16T05:45:52.751Z,28.60
2023-02-16T05:48:16.237Z,26.60
2023-02-16T05:50:39.514Z,27.55
2023-02-16T05:53:02.749Z,26.42
2023-02-16T05:55:26.550Z,27.25
2023-02-16T05:57:49.890Z,27.17
2023-02-16T06:00:16.689Z,28.50
2023-02-16T06:02:39.974Z,26.10
2023-02-16T06:05:03.359Z,26.63
2023-02-16T06:07:26.622Z,26.92
2023-02-16T06:09:50.099Z,27.83
2023-02-16T06:12:13.483Z,28.33
2023-02-16T06:14:36.825Z,28.35
2023-02-16T06:17:01.538Z,27.67
2023-02-16T06:19:25.105Z,27.30
2023-02-16T06:21:48.651Z,27.92
2023-02-16T06:24:14.381Z,26.20
2023-02-16T06:26:38.244Z,28.17
2023-02-16T06:29:01.891Z,27.35
2023-02-16T06:31:25.834Z,28.98
2023-02-16T06:33:51.088Z,28.87
2023-02-16T06:36:14.725Z,26.80
2023-02-16T06:38:38.065Z,27.98
2023-02-16T06:41:01.616Z,27.17
2023-02-16T06:43:25.141Z,26.75
2023-02-16T06:45:49.215Z,26.37
2023-02-16T06:48:12.481Z,27.50
2023-02-16T06:50:37.616Z,29.20
2023-02-16T06:53:01.029Z,27.25
2023-02-16T06:55:24.344Z,28.10
2023-02-16T06:57:47.591Z,27.58
2023-02-16T07:00:12.391Z,27.42
2023-02-16T07:02:37.526Z,26.88
2023-02-16T07:05:00.951Z,26.60
2023-02-16T07:07:25.613Z,27.27
2023-02-16T07:09:49.149Z,28.27
2023-02-16T07:12:12.533Z,25.13
2023-02-16T07:14:35.839Z,26.60
2023-02-16T07:17:04.151Z,26.92
2023-02-16T07:19:30.340Z,28.60
2023-02-16T07:21:55.238Z,26.15
2023-02-16T07:24:19.970Z,26.13
2023-02-16T07:26:43.367Z,27.77
2023-02-16T07:29:06.689Z,27.98
2023-02-16T07:31:30.179Z,27.30
2023-02-16T07:33:53.978Z,27.38
2023-02-16T07:36:17.243Z,27.67
2023-02-16T07:38:41.943Z,27.08
2023-02-16T07:41:09.514Z,28.55
2023-02-16T07:43:34.586Z,28.00
2023-02-16T07:45:58.130Z,25.88
2023-02-16T07:48:21.993Z,27.60
2023-02-16T07:50:45.693Z,28.02
2023-02-16T07:53:11.189Z,28.42
2023-02-16T07:55:41.024Z,26.75
2023-02-16T07:58:05.666Z,27.58
2023-02-16T08:00:29.114Z,26.08
2023-02-16T08:02:52.957Z,26.75
2023-02-16T08:05:17.932Z,26.35
2023-02-16T08:07:41.868Z,27.92
2023-02-16T08:10:05.939Z,27.95
2023-02-16T08:12:29.182Z,27.05
2023-02-16T08:14:54.561Z,28.17
2023-02-16T08:17:17.988Z,27.52
2023-02-16T08:19:41.600Z,27.98
2023-02-16T08:22:06.120Z,28.65
2023-02-16T08:24:30.022Z,26.55
2023-02-16T08:26:55.802Z,28.00
2023-02-16T08:29:19.898Z,27.80
2023-02-16T08:31:46.218Z,26.90
2023-02-16T08:34:10.601Z,27.80
2023-02-16T08:36:36.379Z,27.75
2023-02-16T08:39:00.906Z,27.45
2023-02-16T08:41:29.342Z,28.30
2023-02-16T08:43:53.535Z,27.45
2023-02-16T08:46:18.295Z,25.52
2023-02-16T08:48:45.241Z,29.00
2023-02-16T08:51:09.941Z,26.27
2023-02-16T08:53:34.129Z,25.85
2023-02-16T08:55:59.630Z,26.83
2023-02-16T08:58:23.642Z,25.83
2023-02-16T09:00:47.785Z,24.92
2023-02-16T09:03:11.072Z,25.30
2023-02-16T09:05:35.805Z,26.80
2023-02-16T09:07:59.164Z,26.25
2023-02-16T09:10:23.029Z,26.98
2023-02-16T09:12:48.501Z,24.67
2023-02-16T09:15:12.341Z,25.42
2023-02-16T09:17:36.081Z,26.10
2023-02-16T09:19:59.352Z,25.33
2023-02-16T09:22:24.060Z,24.42
2023-02-16T09:24:47.349Z,24.85
2023-02-16T09:27:11.635Z,24.98
2023-02-16T09:29:35.536Z,24.80
2023-02-16T09:31:58.820Z,24.23
2023-02-16T09:34:26.240Z,25.15
2023-02-16T09:36:51.669Z,25.05
2023-02-16T09:39:17.546Z,24.95
2023-02-16T09:42:01.369Z,25.42
2023-02-16T09:44:37.322Z,25.80
2023-02-16T09:47:04.865Z,25.05
2023-02-16T09:49:33.511Z,25.75
2023-02-16T09:52:04.816Z,24.83
2023-02-16T09:54:38.884Z,24.77
2023-02-16T09:57:09.231Z,25.88
2023-02-16T09:59:48.371Z,26.05
2023-02-16T10:02:36.517Z,24.58
2023-02-16T10:05:20.203Z,24.35
2023-02-16T10:08:07.571Z,23.92
2023-02-16T10:10:42.043Z,24.67
2023-02-16T10:13:15.517Z,25.50
2023-02-16T10:15:42.769Z,24.70
2023-02-16T10:18:18.365Z,22.92
2023-02-16T10:20:46.065Z,24.50
2023-02-16T10:23:24.231Z,24.23
2023-02-16T10:25:56.486Z,24.20
2023-02-16T10:28:23.228Z,25.83
2023-02-16T10:30:52.387Z,24.38
2023-02-16T10:33:18.944Z,24.60
2023-02-16T10:35:48.146Z,24.85
2023-02-16T10:38:18.241Z,24.05
2023-02-16T10:40:54.040Z,22.60
2023-02-16T10:43:25.275Z,24.65
2023-02-16T10:45:52.812Z,23.58
2023-02-16T10:48:16.234Z,23.88
2023-02-16T10:50:44.180Z,24.75
2023-02-16T10:53:15.427Z,24.98
2023-02-16T10:55:39.432Z,23.65
2023-02-16T10:58:04.512Z,24.98
2023-02-16T11:00:48.565Z,23.08
2023-02-16T11:03:15.571Z,23.50
2023-02-16T11:05:41.869Z,24.40
2023-02-16T11:08:10.794Z,25.30
2023-02-16T11:10:53.647Z,23.35
2023-02-16T11:13:28.107Z,23.90
2023-02-16T11:15:54.885Z,23.05
2023-02-16T11:18:31.558Z,24.27
2023-02-16T11:20:56.413Z,25.65
2023-02-16T11:23:26.089Z,25.30
2023-02-16T11:25:58.136Z,25.25
2023-02-16T11:28:32.067Z,25.50
2023-02-16T11:31:05.637Z,24.15
2023-02-16T11:33:30.402Z,23.45
2023-02-16T11:35:54.317Z,23.75
2023-02-16T11:38:37.065Z,25.10
2023-02-16T11:41:03.006Z,26.95
2023-02-16T11:43:32.558Z,25.25
2023-02-16T11:46:02.537Z,25.70
2023-02-16T11:48:29.581Z,26.40
2023-02-16T11:50:59.429Z,26.00
2023-02-16T11:53:27.192Z,24.67
2023-02-16T11:55:53.035Z,25.70
2023-02-16T11:58:20.228Z,27.38
2023-02-16T12:00:58.422Z,27.02
2023-02-16T12:03:49.928Z,26.45
2023-02-16T12:06:33.632Z,26.73
2023-02-16T12:09:10.962Z,25.52
2023-02-16T12:11:47.119Z,26.33
2023-02-16T12:14:32.423Z,26.58
2023-02-16T12:17:08.095Z,27.80
2023-02-16T12:19:42.775Z,26.20
2023-02-16T12:22:22.116Z,27.48
2023-02-16T12:24:55.872Z,26.45
2023-02-16T12:27:26.783Z,26.85
2023-02-16T12:29:59.947Z,28.00
2023-02-16T12:32:49.321Z,26.98
2023-02-16T12:35:47.353Z,27.40
2023-02-16T12:38:24.597Z,26.70
2023-02-16T12:40:58.577Z,27.80
2023-02-16T12:43:35.894Z,27.77
2023-02-16T12:46:07.183Z,26.75
2023-02-16T12:48:42.523Z,26.30
2023-02-16T12:51:11.656Z,26.63
2023-02-16T12:53:44.983Z,27.17
2023-02-16T12:56:14.447Z,26.38
2023-02-16T12:58:41.704Z,27.85
2023-02-16T13:01:13.928Z,26.92
2023-02-16T13:03:42.265Z,26.30
2023-02-16T13:06:17.442Z,27.02
2023-02-16T13:08:46.635Z,26.17
2023-02-16T13:11:20.287Z,27.65
2023-02-16T13:13:46.718Z,25.55
2023-02-16T13:16:29.623Z,26.75
2023-02-16T13:18:57.216Z,25.52
2023-02-16T13:21:51.232Z,24.67
2023-02-16T13:24:49.293Z,24.80
2023-02-16T13:27:32.880Z,24.65
2023-02-16T13:30:36.281Z,25.15
2023-02-16T13:33:18.157Z,25.20
2023-02-16T13:36:19.149Z,25.27
2023-02-16T13:39:25.481Z,25.38
2023-02-16T13:42:52.120Z,26.50
2023-02-16T13:45:19.512Z,26.35
2023-02-16T13:47:43.414Z,26.00
2023-02-16T13:50:16.322Z,27.02
2023-02-16T13:52:43.769Z,25.90
2023-02-16T13:55:21.771Z,26.35
2023-02-16T13:58:07.312Z,25.92
2023-02-16T14:00:34.672Z,25.50
2023-02-16T14:03:02.092Z,24.45
2023-02-16T14:05:31.157Z,25.65
2023-02-16T14:08:21.791Z,25.95
2023-02-16T14:11:12.576Z,26.35
2023-02-16T14:13:49.914Z,24.50
2023-02-16T14:16:29.107Z,25.85
2023-02-16T14:19:00.233Z,26.27
2023-02-16T14:21:34.033Z,27.02
2023-02-16T14:24:00.646Z,26.40
2023-02-16T14:26:24.314Z,28.77
2023-02-16T14:29:18.527Z,26.05
2023-02-16T14:31:48.867Z,27.08
2023-02-16T14:34:20.515Z,26.83
2023-02-16T14:37:27.841Z,29.17
2023-02-16T14:40:07.542Z,27.10
2023-02-16T14:42:34.556Z,27.85
2023-02-16T14:45:22.237Z,27.60
2023-02-16T14:47:56.680Z,28.33
2023-02-16T14:50:38.406Z,26.60
2023-02-16T14:53:43.543Z,26.55
2023-02-16T14:56:39.799Z,26.92
2023-02-16T14:59:07.937Z,27.30
2023-02-16T15:01:42.252Z,28.17
2023-02-16T15:04:05.792Z,26.70
2023-02-16T15:06:33.914Z,26.80
2023-02-16T15:09:01.062Z,26.83
2023-02-16T15:11:33.003Z,27.20
2023-02-16T15:13:56.934Z,26.50
2023-02-16T15:16:22.681Z,27.02
2023-02-16T15:18:49.382Z,24.67
2023-02-16T15:21:18.857Z,27.00
2023-02-16T15:23:51.347Z,25.92
2023-02-16T15:26:22.013Z,25.75
2023-02-16T15:28:54.837Z,25.17
2023-02-16T15:31:23.645Z,24.42
2023-02-16T15:33:56.980Z,24.83
2023-02-16T15:36:24.413Z,23.88
2023-02-16T15:38:58.504Z,24.40
2023-02-16T15:41:30.003Z,24.23
2023-02-16T15:43:55.517Z,25.15
2023-02-16T15:46:27.440Z,22.83
2023-02-16T15:48:51.343Z,23.88
2023-02-16T15:51:20.427Z,24.40
2023-02-16T15:53:51.424Z,22.23
2023-02-16T15:56:29.535Z,25.48
2023-02-16T15:58:54.398Z,23.50
2023-02-16T16:01:31.630Z,24.38
2023-02-16T16:03:55.512Z,24.20
2023-02-16T16:06:19.234Z,21.55
2023-02-16T16:08:42.769Z,22.90
2023-02-16T16:11:06.943Z,21.25
2023-02-16T16:13:31.926Z,21.40
2023-02-16T16:16:01.758Z,23.48
2023-02-16T16:18:46.693Z,21.48
2023-02-16T16:21:21.929Z,20.67
2023-02-16T16:23:59.641Z,21.38
2023-02-16T16:26:24.988Z,22.25
2023-02-16T16:28:48.464Z,20.35
2023-02-16T16:31:16.263Z,20.35
2023-02-16T16:33:56.700Z,20.58
2023-02-16T16:36:20.904Z,19.63
2023-02-16T16:38:44.234Z,19.83
2023-02-16T16:41:07.537Z,17.80
2023-02-16T16:43:32.409Z,18.80
2023-02-16T16:46:11.330Z,17.85
2023-02-16T16:48:37.460Z,17.98
2023-02-16T16:51:13.444Z,17.52
2023-02-16T16:53:46.545Z,16.92
2023-02-16T16:56:14.746Z,15.13
2023-02-16T16:58:38.115Z,15.93
2023-02-16T17:01:01.359Z,15.82
2023-02-16T17:03:24.661Z,14.20
2023-02-16T17:05:49.225Z,14.75
2023-02-16T17:08:13.229Z,14.75
2023-02-16T17:10:38.225Z,13.75
2023-02-16T17:13:03.049Z,14.73
2023-02-16T17:15:33.597Z,13.65
2023-02-16T17:17:57.712Z,12.88
2023-02-16T17:20:21.657Z,14.38
2023-02-16T17:22:50.836Z,14.18
2023-02-16T17:25:14.190Z,13.55
2023-02-16T17:27:38.194Z,13.35
2023-02-16T17:30:01.493Z,13.57
2023-02-16T17:32:25.007Z,13.90
2023-02-16T17:34:48.358Z,13.27
2023-02-16T17:37:11.939Z,13.32
2023-02-16T17:39:36.954Z,12.73
2023-02-16T17:42:01.266Z,12.85
2023-02-16T17:44:25.129Z,12.52
2023-02-16T17:46:48.619Z,13.23
2023-02-16T17:49:13.406Z,12.38
2023-02-16T17:51:37.199Z,12.60
2023-02-16T17:54:00.530Z,12.30
2023-02-16T17:56:26.017Z,12.93
2023-02-16T17:58:49.461Z,13.35
2023-02-16T18:01:15.319Z,11.88
2023-02-16T18:03:38.726Z,12.05
2023-02-16T18:06:02.057Z,12.93
2023-02-16T18:08:25.399Z,11.02
2023-02-16T18:10:52.028Z,11.75
2023-02-16T18:13:17.071Z,11.38
2023-02-16T18:15:42.672Z,11.95
2023-02-16T18:18:06.538Z,11.82
2023-02-16T18:20:29.904Z,10.48
2023-02-16T18:22:53.706Z,11.13
2023-02-16T18:25:17.401Z,11.05
2023-02-16T18:27:40.824Z,12.63
2023-02-16T18:30:06.825Z,11.23
2023-02-16T18:32:30.677Z,11.65
2023-02-16T18:34:54.576Z,11.30
2023-02-16T18:37:18.338Z,12.00
2023-02-16T18:39:42.953Z,12.15
2023-02-16T18:42:06.437Z,10.77
2023-02-16T18:44:30.233Z,12.50
2023-02-16T18:46:54.980Z,11.52
2023-02-16T18:49:18.340Z,13.38
2023-02-16T18:51:41.738Z,11.77
2023-02-16T18:54:05.543Z,12.30
2023-02-16T18:56:29.170Z,12.15
2023-02-16T18:58:52.471Z,11.85
2023-02-16T19:01:23.406Z,12.10
2023-02-16T19:03:48.174Z,12.20
2023-02-16T19:06:11.606Z,11.60
2023-02-16T19:08:34.953Z,12.55
2023-02-16T19:10:58.261Z,12.10
2023-02-16T19:13:21.697Z,12.35
2023-02-16T19:15:45.051Z,13.00
2023-02-16T19:18:08.515Z,11.90
2023-02-16T19:20:33.270Z,12.10
2023-02-16T19:22:57.357Z,12.73
2023-02-16T19:25:21.211Z,12.25
2023-02-16T19:27:45.516Z,11.98
2023-02-16T19:30:10.315Z,12.90
2023-02-16T19:32:33.915Z,13.20
2023-02-16T19:34:57.476Z,14.02
2023-02-16T19:37:22.554Z,12.82
2023-02-16T19:39:46.005Z,13.10
2023-02-16T19:42:09.555Z,12.88
2023-02-16T19:44:34.036Z,12.55
2023-02-16T19:46:57.402Z,12.50
2023-02-16T19:49:20.678Z,11.98
2023-02-16T19:51:46.267Z,13.20
2023-02-16T19:54:11.050Z,12.50
2023-02-16T19:56:36.273Z,12.48
2023-02-16T19:59:00.145Z,13.50
2023-02-16T20:01:26.054Z,13.02
2023-02-16T20:03:51.242Z,13.88
2023-02-16T20:06:17.616Z,13.40
2023-02-16T20:08:41.089Z,14.35
2023-02-16T20:11:08.485Z,12.02
2023-02-16T20:13:32.039Z,13.13
2023-02-16T20:15:55.372Z,13.90
2023-02-16T20:18:18.729Z,14.13
2023-02-16T20:20:42.117Z,14.73
2023-02-16T20:23:05.418Z,14.75
2023-02-16T20:25:28.891Z,15.55
2023-02-16T20:27:53.640Z,15.63
2023-02-16T20:30:19.674Z,15.38
2023-02-16T20:32:43.098Z,15.75
2023-02-16T20:35:08.906Z,15.05
2023-02-16T20:37:32.188Z,16.08
2023-02-16T20:39:55.619Z,15.80
2023-02-16T20:42:18.969Z,15.77
2023-02-16T20:44:43.785Z,14.63
2023-02-16T20:47:08.708Z,16.02
2023-02-16T20:49:33.559Z,17.65
2023-02-16T20:51:57.578Z,17.60
2023-02-16T20:54:21.040Z,17.70
2023-02-16T20:56:44.416Z,18.08
2023-02-16T20:59:07.757Z,17.42
2023-02-16T21:01:37.067Z,18.23
2023-02-16T21:04:01.402Z,17.83
2023-02-16T21:06:25.638Z,16.25
2023-02-16T21:08:48.999Z,16.95
2023-02-16T21:11:13.291Z,17.10
2023-02-16T21:13:37.968Z,17.65
2023-02-16T21:16:01.385Z,17.52
2023-02-16T21:18:26.316Z,18.45
2023-02-16T21:20:49.598Z,18.83
2023-02-16T21:23:13.005Z,17.77
2023-02-16T21:25:36.382Z,17.02
2023-02-16T21:27:59.796Z,18.95
2023-02-16T21:30:23.124Z,17.02
2023-02-16T21:32:46.408Z,18.90
2023-02-16T21:35:11.070Z,18.40
2023-02-16T21:37:35.780Z,18.73
2023-02-16T21:40:16.570Z,18.98
2023-02-16T21:42:39.882Z,17.95
2023-02-16T21:45:17.041Z,18.15
2023-02-16T21:47:58.864Z,18.13
2023-02-16T21:50:23.724Z,18.15
2023-02-16T21:52:46.994Z,18.20
2023-02-16T21:55:28.532Z,18.38
2023-02-16T21:57:53.074Z,17.98
2023-02-16T22:00:17.640Z,17.63
2023-02-16T22:02:40.959Z,18.38
2023-02-16T22:05:04.394Z,17.50
2023-02-16T22:07:28.963Z,18.25
2023-02-16T22:09:52.590Z,17.00
2023-02-16T22:12:16.209Z,17.45
2023-02-16T22:14:39.536Z,17.05
2023-02-16T22:17:04.257Z,17.98
2023-02-16T22:19:27.560Z,17.60
2023-02-16T22:21:51.508Z,17.75
2023-02-16T22:24:18.794Z,17.15
2023-02-16T22:26:42.978Z,16.98
2023-02-16T22:29:08.474Z,17.45
2023-02-16T22:31:31.919Z,17.52
2023-02-16T22:33:59.185Z,17.58
2023-02-16T22:36:22.886Z,16.60
2023-02-16T22:38:46.294Z,17.25
2023-02-16T22:41:12.805Z,16.88
2023-02-16T22:43:36.837Z,16.85
2023-02-16T22:46:00.214Z,16.90
2023-02-16T22:48:23.528Z,16.33
2023-02-16T22:50:46.763Z,16.63
2023-02-16T22:53:10.243Z,15.48
2023-02-16T22:55:33.553Z,15.50
2023-02-16T22:57:58.246Z,14.98
2023-02-16T23:00:21.704Z,16.73
2023-02-16T23:02:45.140Z,15.30
2023-02-16T23:05:09.015Z,15.40
2023-02-16T23:07:33.022Z,15.30
2023-02-16T23:09:56.324Z,15.05
2023-02-16T23:12:19.978Z,15.70
2023-02-16T23:14:44.689Z,15.68
2023-02-16T23:17:07.967Z,15.13
2023-02-16T23:19:32.490Z,14.07
2023-02-16T23:21:56.050Z,15.50
2023-02-16T23:24:21.542Z,13.60
2023-02-16T23:26:44.982Z,13.70
2023-02-16T23:29:08.672Z,14.48
2023-02-16T23:31:39.074Z,13.43
2023-02-16T23:34:03.240Z,13.38
2023-02-16T23:36:26.548Z,13.68
2023-02-16T23:38:49.770Z,13.32
2023-02-16T23:41:15.554Z,13.75
2023-02-16T23:43:40.502Z,12.80
2023-02-16T23:46:04.205Z,13.35
2023-02-16T23:48:29.409Z,13.80
2023-02-16T23:50:54.290Z,13.85
2023-02-16T23:53:17.524Z,13.15
2023-02-16T23:55:41.049Z,12.73
2023-02-16T23:58:04.349Z,12.70
